El Salvador, El Salvador

7:31 AM CST on September 16, 2014 (GMT -0600)
El Salvador International | Change Station
CLOSE
Current Station
Airport
Location: El Salvador,
Elevation: 82 ft
Nearby Weather Stations

Elev 82 ft 13.44 °N, 89.06 °W | Updated 41 minutes ago

Partly Cloudy
Partly Cloudy
77 °F
Feels Like 77 °F
N
5
Wind Variable Wind from NE

Today
High -- | Low -- °F
--% Chance of Precip.
Yesterday
High -- | Low -- °F
Precip. -- in
5:45 AM 5:56 PM
Last Quarter, 45% visible
Pressure 29.98 in
Visibility 6.2 miles
Clouds Few 2300 ft
Dew Point 73 °F
Humidity 89%
Rainfall 0.00 in
Snow Depth Not available.
UV 1 out of 12
Pollen Not available.
Air Quality Not available.
Flu Activity Not available.
METAR MSLP 161250Z 05004KT 9999 FEW023 25/23 Q1015 A2997

More Conditions Fewer Conditions

Pressure 29.98 in
Visibility 6.2 miles
Clouds Few 2300 ft
Dew Point 73 °F
Humidity 89%
Rainfall 0.00 in
Snow Depth Not available.
UV 1 out of 12
Pollen Not available.
Air Quality Not available.
Flu Activity Not available.
METAR MSLP 161250Z 05004KT 9999 FEW023 25/23 Q1015 A2997

More Conditions Fewer Conditions

10-Day Weather Forecast

Almanac

Astronomy

Sep. 16, 2014 Rise Set
Actual Time 5:45 AM CST 5:56 PM CST
Civil Twilight 5:23 AM CST 6:17 PM CST
Nautical Twilight 4:59 AM CST 6:42 PM CST
Astronomical Twilight 4:34 AM CST 7:07 PM CST
Moon No Moon Rise 12:38 PM CST
Length of Visible Light 12h 53m
Length of Day
12h 11m
Tomorrow will be 0m 44s shorter.
Last Quarter, 45% of the Moon is Illuminated
Today
Last Quarter
Sep 24
New
Oct 1
First Quarter
Oct 8
Full
Oct 15
Last Quarter

Yesterday's Extremes

Country Highs Country Lows

Community

WunderPhotos

Upload Photos

1,753,759 photos uploaded!

Nearby

Snow Depth

Not available.

Earthquake Activity

City Distance Mag. Time & Date
No recent earthquake activity has been reported nearby.
Minimum magnitude displayed is 2.5.

Coastal Water Temperatures

Place Temperature
No Stations Reporting

Nearby Weather Stations